Time;durP1;ratioP1;P1;durP2;ratioP2;P2;SDS_P1;SDS_P2;PMS_P1;PMS_P2;Temp;Humidity;BMP_temperature;BMP_pressure;BME280_temperature;BME280_humidity;BME280_pressure;Samples;Min_cycle;Max_cycle;Signal;HPM_P1;HPM_P2
2020/12/15 00:00:52;;;;;;;6.17;4.63;;;7.60;99.90;;;;;;5013708;28;20511;-47
2020/12/15 00:03:19;;;;;;;5.13;4.33;;;7.70;99.90;;;;;;5030081;28;20684;-47
2020/12/15 00:05:46;;;;;;;5.50;4.63;;;7.60;99.90;;;;;;5029688;28;20263;-47
2020/12/15 00:08:14;;;;;;;5.03;4.53;;;7.70;99.90;;;;;;5030035;28;20236;-47
2020/12/15 00:10:44;;;;;;;4.60;4.20;;;7.60;99.90;;;;;;5005209;28;20242;-47
2020/12/15 00:13:12;;;;;;;6.77;4.00;;;7.60;99.90;;;;;;5007541;28;20245;-47
2020/12/15 00:15:40;;;;;;;5.87;4.87;;;7.50;99.90;;;;;;5009306;28;20244;-47
2020/12/15 00:18:08;;;;;;;5.63;5.03;;;7.50;99.90;;;;;;5010016;28;20233;-47
2020/12/15 00:20:35;;;;;;;5.23;4.70;;;7.50;99.90;;;;;;5008942;28;20237;-47
2020/12/15 00:23:03;;;;;;;7.13;4.73;;;7.50;99.90;;;;;;5009516;28;20240;-47
2020/12/15 00:25:30;;;;;;;5.43;4.87;;;7.40;99.90;;;;;;5009689;28;20831;-47
2020/12/15 00:27:57;;;;;;;6.67;4.97;;;7.40;99.90;;;;;;5009974;28;20248;-47
2020/12/15 00:30:26;;;;;;;7.47;5.20;;;7.40;99.90;;;;;;5009811;28;20241;-47
2020/12/15 00:32:54;;;;;;;6.57;5.50;;;7.40;99.90;;;;;;5009306;28;20245;-46
2020/12/15 00:35:21;;;;;;;6.57;5.87;;;7.30;99.90;;;;;;5009923;28;20237;-46
2020/12/15 00:37:49;;;;;;;6.00;5.27;;;7.30;99.90;;;;;;5009821;28;20241;-47
2020/12/15 00:40:16;;;;;;;6.17;5.50;;;7.30;99.90;;;;;;5009230;28;20240;-47
2020/12/15 00:42:43;;;;;;;7.97;5.43;;;7.30;99.90;;;;;;5009082;28;20249;-47
2020/12/15 00:45:11;;;;;;;6.33;5.17;;;7.30;99.90;;;;;;5008789;28;20244;-48
2020/12/15 00:47:40;;;;;;;6.00;5.40;;;7.30;99.90;;;;;;4991803;28;20242;-47
2020/12/15 00:50:08;;;;;;;8.47;5.80;;;7.30;99.90;;;;;;5004396;28;20628;-47
2020/12/15 00:52:36;;;;;;;5.93;5.33;;;7.20;99.90;;;;;;5008733;28;20247;-47
2020/12/15 00:55:03;;;;;;;5.90;5.13;;;7.20;99.90;;;;;;5007930;28;20252;-47
2020/12/15 00:57:31;;;;;;;6.93;5.73;;;7.30;99.90;;;;;;5004497;28;20238;-47
2020/12/15 01:00:00;;;;;;;7.03;5.57;;;7.30;99.90;;;;;;5008872;28;20560;-47
2020/12/15 01:02:32;;;;;;;7.57;5.67;;;7.20;99.90;;;;;;5007340;28;20292;-47
2020/12/15 01:05:00;;;;;;;6.47;5.80;;;7.20;99.90;;;;;;5007311;28;20372;-46
2020/12/15 01:07:28;;;;;;;6.77;5.60;;;7.20;99.90;;;;;;5004042;28;20233;-47
2020/12/15 01:09:58;;;;;;;6.63;5.67;;;7.20;99.90;;;;;;5002422;28;20697;-47
2020/12/15 01:12:26;;;;;;;8.70;5.87;;;7.20;99.90;;;;;;5007694;28;20229;-47
2020/12/15 01:14:55;;;;;;;8.33;6.27;;;7.10;99.90;;;;;;5007779;28;20769;-47
2020/12/15 01:17:24;;;;;;;7.07;6.07;;;7.10;99.90;;;;;;5009215;28;20236;-46
2020/12/15 01:19:52;;;;;;;8.10;6.07;;;7.10;99.90;;;;;;5007063;28;20703;-47
2020/12/15 01:22:21;;;;;;;6.47;5.77;;;7.10;99.90;;;;;;5009034;28;20557;-47
2020/12/15 01:24:50;;;;;;;6.00;5.30;;;7.10;99.90;;;;;;5009242;28;20241;-47
2020/12/15 01:27:35;;;;;;;6.77;5.57;;;7.10;99.90;;;;;;5003708;28;20659;-47
2020/12/15 01:30:11;;;;;;;6.87;6.17;;;7.10;99.90;;;;;;5002782;28;20306;-47
2020/12/15 01:32:57;;;;;;;6.63;5.93;;;7.10;99.90;;;;;;5008615;28;20248;-47
2020/12/15 01:35:45;;;;;;;6.10;5.50;;;7.10;99.90;;;;;;5008811;28;20247;-48
2020/12/15 01:38:14;;;;;;;6.53;5.90;;;7.10;99.90;;;;;;5007226;28;20233;-47
2020/12/15 01:40:49;;;;;;;6.90;6.30;;;7.10;99.90;;;;;;5006722;28;20241;-47
2020/12/15 01:43:17;;;;;;;7.53;5.80;;;7.10;99.90;;;;;;5007568;28;20236;-46
2020/12/15 01:45:45;;;;;;;7.00;6.30;;;7.10;99.90;;;;;;5007053;28;20245;-47
2020/12/15 01:48:13;;;;;;;7.50;6.23;;;7.10;99.90;;;;;;5008717;28;20701;-47
2020/12/15 01:50:49;;;;;;;7.17;6.20;;;7.10;99.90;;;;;;5007166;28;20324;-46
2020/12/15 01:53:18;;;;;;;7.10;6.37;;;7.10;99.90;;;;;;5008787;28;20237;-46
2020/12/15 01:55:49;;;;;;;6.80;6.10;;;7.10;99.90;;;;;;5006488;28;20241;-47
2020/12/15 01:58:19;;;;;;;6.37;5.73;;;7.10;99.90;;;;;;5002787;28;20593;-47
2020/12/15 02:00:56;;;;;;;6.57;5.93;;;7.10;99.90;;;;;;5007566;28;20240;-47
2020/12/15 02:03:24;;;;;;;6.73;5.97;;;7.20;99.90;;;;;;5010890;28;20243;-47
2020/12/15 02:06:10;;;;;;;7.00;5.90;;;7.20;99.90;;;;;;5016777;28;20738;-47
2020/12/15 02:08:53;;;;;;;7.00;5.97;;;7.20;99.90;;;;;;5012887;28;20252;-47
2020/12/15 02:11:20;;;;;;;9.83;6.00;;;7.20;99.90;;;;;;5012210;28;20244;-47
2020/12/15 02:13:50;;;;;;;7.47;6.37;;;7.30;99.90;;;;;;5014537;28;20250;-47
2020/12/15 02:16:19;;;;;;;6.93;6.10;;;7.40;99.90;;;;;;5012386;28;20587;-47
2020/12/15 02:18:51;;;;;;;6.70;5.67;;;7.30;99.90;;;;;;5010426;28;21021;-49
2020/12/15 02:21:19;;;;;;;8.73;5.60;;;7.20;99.90;;;;;;5010688;28;20582;-47
2020/12/15 02:24:01;;;;;;;6.23;5.67;;;7.20;99.90;;;;;;5045228;28;20231;-47
2020/12/15 02:26:41;;;;;;;7.07;6.37;;;7.40;99.90;;;;;;5032350;28;23197;-47
2020/12/15 02:29:10;;;;;;;6.80;6.03;;;7.60;99.90;;;;;;5012212;28;20260;-47
2020/12/15 02:31:37;;;;;;;7.23;6.33;;;7.60;99.90;;;;;;5010683;28;20313;-48
2020/12/15 02:34:06;;;;;;;6.57;5.90;;;7.60;99.90;;;;;;5010493;28;20233;-47
2020/12/15 02:36:34;;;;;;;7.47;6.30;;;7.50;99.90;;;;;;4997147;28;20222;-47
2020/12/15 02:39:14;;;;;;;6.60;5.73;;;7.40;99.90;;;;;;5010497;28;20237;-47
2020/12/15 02:41:53;;;;;;;7.20;6.50;;;7.30;99.90;;;;;;5009814;28;20244;-48
2020/12/15 02:44:23;;;;;;;6.27;5.67;;;7.30;99.90;;;;;;5010298;28;20239;-47
2020/12/15 02:47:01;;;;;;;6.67;6.03;;;7.20;99.90;;;;;;5006932;28;20256;-47
2020/12/15 02:49:30;;;;;;;7.30;6.60;;;7.10;99.90;;;;;;5010123;28;20241;-47
2020/12/15 02:52:00;;;;;;;7.03;6.03;;;7.20;99.90;;;;;;5009915;28;20252;-47
2020/12/15 02:54:35;;;;;;;7.83;6.63;;;7.10;99.90;;;;;;5009685;28;20233;-47
2020/12/15 02:57:04;;;;;;;6.47;5.77;;;7.10;99.90;;;;;;5005647;28;20295;-47
2020/12/15 02:59:34;;;;;;;6.30;5.70;;;7.10;99.90;;;;;;5038487;28;20598;-47
2020/12/15 03:02:06;;;;;;;6.20;5.60;;;7.10;99.90;;;;;;5029152;28;20249;-47
2020/12/15 03:04:34;;;;;;;6.60;5.90;;;7.10;99.90;;;;;;5028022;28;20704;-47
2020/12/15 03:07:03;;;;;;;10.70;6.13;;;7.10;99.90;;;;;;5028565;28;20244;-47
2020/12/15 03:09:42;;;;;;;7.00;6.30;;;7.10;99.90;;;;;;5022250;28;20925;-47
2020/12/15 03:12:22;;;;;;;7.33;6.17;;;7.10;99.90;;;;;;5038058;28;20229;-47
2020/12/15 03:14:54;;;;;;;6.67;5.90;;;7.00;99.90;;;;;;5026034;28;20650;-47
2020/12/15 03:17:24;;;;;;;7.40;6.60;;;7.00;99.90;;;;;;5029809;28;20244;-47
2020/12/15 03:19:54;;;;;;;7.20;6.50;;;7.00;99.90;;;;;;5029316;28;20232;-47
2020/12/15 03:22:21;;;;;;;7.63;6.90;;;7.00;99.90;;;;;;5029635;28;20692;-47
2020/12/15 03:24:56;;;;;;;7.07;6.37;;;7.00;99.90;;;;;;5012000;28;20243;-47
2020/12/15 03:27:28;;;;;;;8.10;7.30;;;7.00;99.90;;;;;;5009505;28;20237;-47
2020/12/15 03:29:57;;;;;;;7.60;6.83;;;7.00;99.90;;;;;;5009313;28;20312;-47
2020/12/15 03:32:24;;;;;;;8.00;7.20;;;7.00;99.90;;;;;;5009064;28;20716;-47
2020/12/15 03:34:53;;;;;;;8.83;6.97;;;7.00;99.90;;;;;;5009093;28;20641;-47
2020/12/15 03:37:21;;;;;;;7.47;6.77;;;7.00;99.90;;;;;;5010277;28;20241;-47
2020/12/15 03:39:53;;;;;;;8.50;7.57;;;7.10;99.90;;;;;;5010199;28;20693;-47
2020/12/15 03:42:50;;;;;;;7.97;7.17;;;7.20;99.90;;;;;;5028737;28;20250;-48
2020/12/15 03:45:23;;;;;;;7.77;6.97;;;7.10;99.90;;;;;;5028740;28;20787;-47
2020/12/15 03:47:50;;;;;;;7.90;7.13;;;7.10;99.90;;;;;;5029484;28;20244;-47
2020/12/15 03:50:18;;;;;;;7.60;6.87;;;7.00;99.90;;;;;;5030313;28;20232;-47
2020/12/15 03:52:45;;;;;;;7.60;6.80;;;7.00;99.90;;;;;;5028162;28;20752;-47
2020/12/15 03:55:21;;;;;;;7.30;6.50;;;7.00;99.90;;;;;;5028363;28;20259;-47
2020/12/15 03:57:57;;;;;;;7.47;6.67;;;7.00;99.90;;;;;;5028563;28;20248;-47
2020/12/15 04:00:48;;;;;;;9.00;6.43;;;7.00;99.90;;;;;;5016983;28;20240;-47
2020/12/15 04:03:25;;;;;;;6.70;6.10;;;7.00;99.90;;;;;;5024783;28;20699;-47
2020/12/15 04:06:10;;;;;;;7.47;6.57;;;7.00;99.90;;;;;;5008384;28;20340;-47
2020/12/15 04:08:45;;;;;;;7.73;6.93;;;7.00;99.90;;;;;;5008799;28;20243;-47
2020/12/15 04:11:14;;;;;;;8.27;7.43;;;7.00;99.90;;;;;;5008265;28;20233;-47
2020/12/15 04:13:51;;;;;;;8.90;7.80;;;6.90;99.90;;;;;;5015877;28;20266;-47
2020/12/15 04:16:19;;;;;;;8.60;7.70;;;6.90;99.90;;;;;;5009047;28;20682;-47
2020/12/15 04:19:11;;;;;;;8.70;7.17;;;7.00;99.90;;;;;;5008292;28;20255;-47
2020/12/15 04:21:38;;;;;;;8.57;7.03;;;6.90;99.90;;;;;;5007605;28;20279;-47
2020/12/15 04:24:10;;;;;;;7.23;6.53;;;6.90;99.90;;;;;;5008268;28;20696;-47
2020/12/15 04:26:47;;;;;;;7.07;6.23;;;6.90;99.90;;;;;;5008636;28;20668;-47
2020/12/15 04:29:16;;;;;;;7.80;7.00;;;6.90;99.90;;;;;;5019514;28;20298;-47
2020/12/15 04:31:58;;;;;;;8.82;8.02;;;6.90;99.90;;;;;;5038283;28;20462;-47
2020/12/15 04:34:28;;;;;;;7.77;6.97;;;6.90;99.90;;;;;;5008155;28;20265;-47
2020/12/15 04:36:57;;;;;;;12.57;6.60;;;6.90;99.90;;;;;;5008119;28;20618;-47
2020/12/15 04:39:34;;;;;;;7.23;6.10;;;6.90;99.90;;;;;;5007814;28;20245;-48
2020/12/15 04:42:02;;;;;;;6.73;5.97;;;6.90;99.90;;;;;;5023899;28;20241;-47
2020/12/15 04:44:34;;;;;;;7.33;6.27;;;6.90;99.90;;;;;;5008772;28;20291;-47
2020/12/15 04:47:12;;;;;;;7.50;6.50;;;6.90;99.90;;;;;;4992192;28;20245;-47
2020/12/15 04:50:02;;;;;;;6.47;5.73;;;6.90;99.90;;;;;;4989952;28;20237;-47
2020/12/15 04:52:49;;;;;;;6.70;6.07;;;6.90;99.90;;;;;;5006943;28;20319;-47
2020/12/15 04:55:23;;;;;;;7.13;6.47;;;6.90;99.90;;;;;;5024468;28;20236;-47
2020/12/15 04:58:00;;;;;;;6.67;6.07;;;6.90;99.90;;;;;;5021497;28;20233;-47
2020/12/15 05:00:30;;;;;;;6.83;6.13;;;6.90;99.90;;;;;;5024346;28;20232;-47
2020/12/15 05:03:14;;;;;;;6.67;6.07;;;6.90;99.90;;;;;;5011323;28;20275;-46
2020/12/15 05:05:41;;;;;;;6.80;6.20;;;6.90;99.90;;;;;;5041001;28;20249;-47
2020/12/15 05:08:12;;;;;;;7.07;6.43;;;6.90;99.90;;;;;;5040794;28;20716;-47
2020/12/15 05:10:49;;;;;;;6.80;6.10;;;6.90;99.90;;;;;;5017962;28;20251;-46
2020/12/15 05:13:34;;;;;;;7.37;6.60;;;6.90;99.90;;;;;;5010788;28;20329;-47
2020/12/15 05:16:03;;;;;;;8.20;6.17;;;6.90;99.90;;;;;;5007695;28;20238;-47
2020/12/15 05:18:45;;;;;;;7.47;6.67;;;6.90;99.90;;;;;;5007557;28;20260;-47
2020/12/15 05:21:21;;;;;;;7.43;6.50;;;6.90;99.90;;;;;;5007189;28;20255;-47
2020/12/15 05:23:55;;;;;;;6.83;6.20;;;6.90;99.90;;;;;;5008823;28;20732;-46
2020/12/15 05:26:32;;;;;;;8.27;6.70;;;6.90;99.90;;;;;;5007667;28;20236;-47
2020/12/15 05:29:08;;;;;;;6.63;6.00;;;6.90;99.90;;;;;;5014669;28;20293;-47
2020/12/15 05:31:53;;;;;;;7.07;6.37;;;6.90;99.90;;;;;;5027267;28;20247;-47
2020/12/15 05:34:46;;;;;;;7.20;6.50;;;6.90;99.90;;;;;;5012127;28;20643;-47
2020/12/15 05:37:32;;;;;;;8.63;6.57;;;6.90;99.90;;;;;;5032099;28;20326;-47
2020/12/15 05:40:18;;;;;;;7.33;6.63;;;6.90;99.90;;;;;;5015756;28;20295;-47
2020/12/15 05:43:08;;;;;;;8.43;6.97;;;6.90;99.90;;;;;;5012676;28;20722;-47
2020/12/15 05:45:36;;;;;;;7.80;6.17;;;6.90;99.90;;;;;;5011270;28;20458;-47
2020/12/15 05:48:07;;;;;;;6.80;6.20;;;7.10;99.90;;;;;;5011727;28;20268;-47
2020/12/15 05:50:35;;;;;;;8.03;6.53;;;7.00;99.90;;;;;;5012215;28;20651;-47
2020/12/15 05:53:05;;;;;;;7.97;7.17;;;7.00;99.90;;;;;;5012486;28;20240;-47
2020/12/15 05:55:33;;;;;;;7.07;6.37;;;6.90;99.90;;;;;;5006720;28;20241;-47
2020/12/15 05:58:01;;;;;;;7.43;6.63;;;6.90;99.90;;;;;;5014668;28;20232;-47
2020/12/15 06:00:32;;;;;;;8.03;7.00;;;6.90;99.90;;;;;;5011040;28;20674;-47
2020/12/15 06:03:01;;;;;;;8.43;7.30;;;6.90;99.90;;;;;;5011993;28;20271;-46
2020/12/15 06:05:32;;;;;;;8.03;7.23;;;6.80;99.90;;;;;;5012007;28;20290;-47
2020/12/15 06:08:02;;;;;;;8.30;7.50;;;6.90;99.90;;;;;;5011686;28;20354;-47
2020/12/15 06:10:31;;;;;;;7.87;7.17;;;6.80;99.90;;;;;;5011585;28;20589;-47
2020/12/15 06:12:59;;;;;;;7.60;6.90;;;6.80;99.90;;;;;;5011738;28;20245;-47
2020/12/15 06:15:28;;;;;;;8.07;7.30;;;6.80;99.90;;;;;;5011900;28;20295;-47
2020/12/15 06:17:57;;;;;;;7.37;6.67;;;6.90;99.90;;;;;;5011584;28;20581;-47
2020/12/15 06:20:32;;;;;;;8.10;7.37;;;6.90;99.90;;;;;;5011610;28;20245;-46
2020/12/15 06:23:01;;;;;;;7.87;7.13;;;6.90;99.90;;;;;;5011249;28;20228;-47
2020/12/15 06:25:30;;;;;;;8.40;7.37;;;6.90;99.90;;;;;;5011428;28;20240;-47
2020/12/15 06:28:07;;;;;;;8.13;7.33;;;6.90;99.90;;;;;;5010802;28;20314;-47
2020/12/15 06:30:37;;;;;;;8.83;7.80;;;6.90;99.90;;;;;;5009781;28;20236;-47
2020/12/15 06:33:07;;;;;;;8.67;7.77;;;6.90;99.90;;;;;;5009978;28;20273;-47
2020/12/15 06:35:36;;;;;;;8.80;7.77;;;6.90;99.90;;;;;;5009794;28;20231;-47
2020/12/15 06:38:06;;;;;;;8.83;7.93;;;6.80;99.90;;;;;;5011731;28;20237;-47
2020/12/15 06:40:41;;;;;;;9.43;8.53;;;6.80;99.90;;;;;;5011079;28;20225;-47
2020/12/15 06:43:08;;;;;;;9.73;8.73;;;6.90;99.90;;;;;;5011376;28;20244;-48
2020/12/15 06:45:36;;;;;;;11.10;8.30;;;6.90;99.90;;;;;;5004509;28;20259;-48
2020/12/15 06:48:05;;;;;;;9.73;8.73;;;6.90;99.90;;;;;;5011094;28;20299;-47
2020/12/15 06:50:44;;;;;;;9.07;8.27;;;6.80;99.90;;;;;;5008161;28;20749;-47
2020/12/15 06:53:15;;;;;;;10.17;9.17;;;6.80;99.90;;;;;;5008234;28;20241;-47
2020/12/15 06:55:44;;;;;;;10.13;8.90;;;6.90;99.90;;;;;;5006215;28;20263;-46
2020/12/15 06:58:22;;;;;;;9.67;8.77;;;6.90;99.90;;;;;;5012421;28;20604;-47
2020/12/15 07:00:50;;;;;;;10.17;9.13;;;6.90;99.90;;;;;;5009234;28;20327;-47
2020/12/15 07:03:33;;;;;;;10.27;9.20;;;6.90;99.90;;;;;;5008612;28;20280;-47
2020/12/15 07:06:10;;;;;;;10.90;9.07;;;6.90;99.90;;;;;;5007819;28;20237;-47
2020/12/15 07:08:37;;;;;;;9.33;8.40;;;6.90;99.90;;;;;;5012124;28;20236;-47
2020/12/15 07:11:05;;;;;;;10.63;9.53;;;7.00;99.90;;;;;;5010904;28;20248;-47
2020/12/15 07:13:32;;;;;;;10.27;9.27;;;7.00;99.90;;;;;;5024411;28;20236;-47
2020/12/15 07:16:00;;;;;;;12.77;9.27;;;7.00;99.90;;;;;;5009457;28;20767;-47
2020/12/15 07:18:32;;;;;;;10.70;8.97;;;7.00;99.90;;;;;;5006832;28;20229;-47
2020/12/15 07:21:02;;;;;;;10.53;9.40;;;7.00;99.90;;;;;;5007101;28;20384;-47
2020/12/15 07:23:46;;;;;;;10.90;9.80;;;7.00;99.90;;;;;;5006694;28;20364;-47
2020/12/15 07:26:15;;;;;;;11.43;10.13;;;7.00;99.90;;;;;;5007419;28;20256;-47
2020/12/15 07:28:46;;;;;;;10.40;9.40;;;7.00;99.90;;;;;;5008547;28;20737;-46
2020/12/15 07:31:25;;;;;;;10.57;9.57;;;7.00;99.90;;;;;;5009827;28;20352;-47
2020/12/15 07:34:09;;;;;;;10.97;9.70;;;7.00;99.90;;;;;;5012412;28;20295;-47
2020/12/15 07:36:39;;;;;;;11.53;10.33;;;7.00;99.90;;;;;;5007499;28;20651;-47
2020/12/15 07:39:08;;;;;;;13.40;9.50;;;7.00;99.90;;;;;;5004534;28;20237;-47
2020/12/15 07:41:38;;;;;;;11.43;10.20;;;7.00;99.90;;;;;;5008544;28;20578;-47
2020/12/15 07:44:09;;;;;;;10.67;9.57;;;7.00;99.90;;;;;;5010120;28;20347;-47
2020/12/15 07:46:37;;;;;;;10.70;9.60;;;7.00;99.90;;;;;;5007218;28;20241;-47
2020/12/15 07:49:05;;;;;;;11.70;10.07;;;7.00;99.90;;;;;;5009240;28;20234;-47
2020/12/15 07:51:33;;;;;;;11.63;10.43;;;7.00;99.90;;;;;;4998092;28;20237;-46
2020/12/15 07:54:00;;;;;;;12.47;10.17;;;7.00;99.90;;;;;;5001895;28;20228;-47
2020/12/15 07:56:29;;;;;;;10.97;9.97;;;7.00;99.90;;;;;;5009337;28;20651;-47
2020/12/15 07:58:56;;;;;;;13.40;10.10;;;7.00;99.90;;;;;;5008914;28;20245;-47
2020/12/15 08:01:26;;;;;;;11.67;10.47;;;7.00;99.90;;;;;;5005792;28;20299;-47
2020/12/15 08:04:05;;;;;;;11.67;10.47;;;7.00;99.90;;;;;;5009614;28;20245;-47
2020/12/15 08:06:35;;;;;;;12.10;10.90;;;7.00;99.90;;;;;;5008996;28;20295;-47
2020/12/15 08:09:04;;;;;;;12.40;10.23;;;7.10;99.90;;;;;;5009084;28;20305;-47
2020/12/15 08:11:32;;;;;;;11.77;10.67;;;7.10;99.90;;;;;;5008341;28;20327;-47
2020/12/15 08:14:01;;;;;;;12.63;11.27;;;7.10;99.90;;;;;;5007766;28;20473;-47
2020/12/15 08:16:29;;;;;;;12.80;11.37;;;7.10;99.90;;;;;;5008914;28;20766;-47
2020/12/15 08:18:59;;;;;;;13.27;11.97;;;7.10;99.90;;;;;;5008527;28;20255;-47
2020/12/15 08:21:40;;;;;;;13.10;11.80;;;7.10;99.90;;;;;;5008583;28;20233;-47
2020/12/15 08:24:10;;;;;;;12.20;11.00;;;7.10;99.90;;;;;;5003677;28;20263;-47
2020/12/15 08:26:39;;;;;;;13.60;10.90;;;7.10;99.90;;;;;;5013972;28;20260;-47
2020/12/15 08:29:10;;;;;;;12.23;11.03;;;7.10;99.90;;;;;;5027919;28;20232;-47
2020/12/15 08:31:39;;;;;;;14.07;11.97;;;7.10;99.90;;;;;;5027389;28;20244;-47
2020/12/15 08:34:14;;;;;;;12.47;11.17;;;7.20;99.90;;;;;;5027458;28;20248;-47
2020/12/15 08:36:48;;;;;;;13.33;11.47;;;7.20;99.90;;;;;;5025114;28;20232;-47
2020/12/15 08:39:19;;;;;;;12.63;11.30;;;7.30;99.90;;;;;;5027901;28;20323;-46
2020/12/15 08:41:52;;;;;;;13.80;12.10;;;7.20;99.90;;;;;;5027539;28;20244;-47
2020/12/15 08:44:22;;;;;;;13.60;12.10;;;7.20;99.90;;;;;;5015269;28;20275;-47
2020/12/15 08:46:51;;;;;;;14.20;12.17;;;7.20;99.90;;;;;;5017032;28;20719;-47
2020/12/15 08:49:22;;;;;;;15.03;11.90;;;7.20;99.90;;;;;;5005961;28;20243;-47
2020/12/15 08:51:52;;;;;;;13.17;11.83;;;7.30;99.90;;;;;;5007749;28;20801;-47
2020/12/15 08:54:20;;;;;;;14.43;12.10;;;7.30;99.90;;;;;;5011264;28;20299;-47
2020/12/15 08:56:48;;;;;;;13.13;11.70;;;7.30;99.90;;;;;;5023258;28;20249;-47
2020/12/15 08:59:18;;;;;;;14.03;11.87;;;7.30;99.90;;;;;;5025766;28;20240;-47
2020/12/15 09:01:47;;;;;;;15.17;12.53;;;7.30;99.90;;;;;;5022893;28;20240;-47
2020/12/15 09:04:26;;;;;;;14.13;11.57;;;7.40;99.90;;;;;;5025339;28;20256;-47
2020/12/15 09:06:53;;;;;;;16.17;12.50;;;7.40;99.90;;;;;;5025823;28;20244;-47
2020/12/15 09:09:26;;;;;;;13.03;11.40;;;7.40;99.90;;;;;;5026021;28;20691;-47
2020/12/15 09:11:55;;;;;;;13.03;11.73;;;7.50;99.90;;;;;;5025284;28;20244;-47
2020/12/15 09:14:24;;;;;;;14.30;12.67;;;7.50;99.90;;;;;;5025855;28;20236;-47
2020/12/15 09:16:51;;;;;;;14.67;11.93;;;7.50;99.90;;;;;;5002965;28;20241;-47
2020/12/15 09:19:21;;;;;;;14.10;12.60;;;7.50;99.90;;;;;;5005730;28;20245;-47
2020/12/15 09:21:57;;;;;;;13.77;12.27;;;7.60;99.90;;;;;;5004995;28;20249;-47
2020/12/15 09:24:25;;;;;;;13.20;11.80;;;7.70;99.90;;;;;;5005221;28;20303;-47
2020/12/15 09:26:53;;;;;;;16.10;12.10;;;7.70;99.90;;;;;;5006228;28;20252;-47
2020/12/15 09:29:21;;;;;;;18.30;14.93;;;7.70;99.90;;;;;;5006246;28;20260;-47
2020/12/15 09:31:53;;;;;;;21.57;16.00;;;7.80;99.90;;;;;;5004709;28;20299;-47
2020/12/15 09:34:22;;;;;;;16.87;14.50;;;7.80;99.90;;;;;;5005460;28;20240;-47
2020/12/15 09:36:56;;;;;;;18.93;14.73;;;7.70;99.90;;;;;;5006251;28;20256;-46
2020/12/15 09:39:26;;;;;;;16.60;13.90;;;7.80;99.90;;;;;;5006092;28;20251;-47
2020/12/15 09:41:56;;;;;;;14.93;12.27;;;7.80;99.90;;;;;;5005298;28;20260;-47
2020/12/15 09:44:24;;;;;;;14.20;12.40;;;7.80;99.90;;;;;;5007725;28;20634;-46
2020/12/15 09:46:52;;;;;;;13.37;11.97;;;7.90;99.90;;;;;;4997638;28;20265;-47
2020/12/15 09:49:20;;;;;;;13.57;12.10;;;7.90;99.90;;;;;;5003253;28;20253;-47
2020/12/15 09:51:47;;;;;;;13.83;12.23;;;7.90;99.90;;;;;;5004424;28;20303;-47
2020/12/15 09:54:15;;;;;;;12.83;11.20;;;8.00;99.90;;;;;;5005286;28;20276;-47
2020/12/15 09:56:44;;;;;;;13.33;12.00;;;8.00;99.90;;;;;;5004953;28;20335;-47
2020/12/15 09:59:12;;;;;;;12.30;11.00;;;8.00;99.90;;;;;;5000282;28;20233;-47
2020/12/15 10:01:41;;;;;;;12.73;11.43;;;8.00;99.90;;;;;;4996043;28;20284;-47
2020/12/15 10:04:10;;;;;;;13.47;12.07;;;8.10;99.90;;;;;;5016689;28;20620;-47
2020/12/15 10:06:38;;;;;;;14.93;11.67;;;8.10;99.90;;;;;;5024192;28;20377;-47
2020/12/15 10:09:05;;;;;;;13.00;11.70;;;8.10;99.90;;;;;;5025306;28;20240;-47
2020/12/15 10:11:33;;;;;;;14.00;12.60;;;8.20;99.90;;;;;;5024209;28;20609;-47
2020/12/15 10:14:02;;;;;;;13.83;12.43;;;8.20;99.90;;;;;;5010741;28;20233;-47
2020/12/15 10:16:31;;;;;;;13.50;11.80;;;8.30;99.90;;;;;;4995076;28;20233;-47
2020/12/15 10:18:59;;;;;;;13.93;11.83;;;8.30;99.90;;;;;;5017664;28;20275;-47
2020/12/15 10:21:27;;;;;;;12.90;11.03;;;8.30;99.90;;;;;;5004020;28;20244;-47
2020/12/15 10:23:55;;;;;;;11.93;10.73;;;8.30;99.90;;;;;;5008636;28;20237;-47
2020/12/15 10:26:25;;;;;;;13.80;12.40;;;8.40;99.90;;;;;;5008189;28;20256;-47
2020/12/15 10:28:53;;;;;;;13.37;10.97;;;8.30;99.90;;;;;;5008605;28;20319;-47
2020/12/15 10:31:21;;;;;;;13.53;12.13;;;8.40;99.90;;;;;;5008115;28;20742;-47
2020/12/15 10:33:49;;;;;;;13.50;11.87;;;8.30;99.90;;;;;;5012803;28;20251;-47
2020/12/15 10:36:17;;;;;;;14.03;11.20;;;8.30;99.90;;;;;;5027451;28;20971;-47
2020/12/15 10:38:46;;;;;;;12.80;11.50;;;8.40;99.90;;;;;;5028153;28;20245;-47
2020/12/15 10:41:13;;;;;;;13.90;10.93;;;8.40;99.90;;;;;;5027310;28;20272;-47
2020/12/15 10:43:41;;;;;;;14.03;11.77;;;8.40;99.90;;;;;;5021567;28;20817;-47
2020/12/15 10:46:26;;;;;;;13.47;11.50;;;8.50;99.90;;;;;;5010315;28;20237;-47
2020/12/15 10:48:53;;;;;;;14.10;11.83;;;8.50;99.90;;;;;;5009453;28;20261;-47
2020/12/15 10:51:22;;;;;;;14.63;11.77;;;8.50;99.90;;;;;;5027743;28;20685;-46
2020/12/15 10:53:50;;;;;;;13.87;12.03;;;8.50;99.90;;;;;;5027805;28;20248;-47
2020/12/15 10:56:22;;;;;;;13.83;12.23;;;8.60;99.90;;;;;;5007018;28;20252;-47
2020/12/15 10:58:50;;;;;;;14.03;12.63;;;8.60;99.90;;;;;;5007957;28;20597;-47
2020/12/15 11:01:17;;;;;;;14.53;12.07;;;8.70;99.90;;;;;;5007724;28;20237;-47
2020/12/15 11:03:45;;;;;;;13.13;11.60;;;8.70;99.90;;;;;;5007760;28;20689;-48
2020/12/15 11:06:13;;;;;;;13.73;11.80;;;8.80;99.90;;;;;;5008079;28;20267;-47
2020/12/15 11:08:40;;;;;;;16.73;11.80;;;8.80;99.90;;;;;;5006924;28;20232;-47
2020/12/15 11:11:11;;;;;;;14.93;13.07;;;8.90;99.90;;;;;;5007091;28;20245;-47
2020/12/15 11:13:39;;;;;;;14.03;12.20;;;8.90;99.90;;;;;;5007593;28;20247;-48
2020/12/15 11:16:06;;;;;;;13.40;12.00;;;8.90;99.90;;;;;;5007442;28;20245;-47
2020/12/15 11:18:34;;;;;;;15.97;11.93;;;8.90;99.90;;;;;;5004226;28;20244;-47
2020/12/15 11:21:02;;;;;;;13.23;11.87;;;8.90;99.90;;;;;;4987514;28;20732;-47
2020/12/15 11:23:29;;;;;;;15.03;12.20;;;9.00;99.90;;;;;;4997554;28;20241;-47
2020/12/15 11:26:16;;;;;;;12.37;11.07;;;9.00;99.90;;;;;;5007947;28;20240;-47
2020/12/15 11:28:43;;;;;;;14.03;12.40;;;8.90;99.90;;;;;;5007325;28;21516;-47
2020/12/15 11:31:12;;;;;;;16.47;12.67;;;9.00;99.90;;;;;;5006457;28;20249;-47
2020/12/15 11:33:42;;;;;;;13.33;11.23;;;9.00;99.90;;;;;;5006602;28;20779;-47
2020/12/15 11:36:09;;;;;;;14.43;12.60;;;9.10;99.90;;;;;;5007205;28;20724;-47
2020/12/15 11:38:39;;;;;;;14.70;12.40;;;9.10;99.90;;;;;;5005773;28;20772;-47
2020/12/15 11:41:06;;;;;;;13.53;12.07;;;9.10;99.90;;;;;;5004168;28;20240;-47
2020/12/15 11:43:35;;;;;;;15.13;11.97;;;9.10;99.90;;;;;;5011231;28;20236;-47
2020/12/15 11:46:02;;;;;;;13.80;11.90;;;9.10;99.90;;;;;;5004737;28;20326;-47
2020/12/15 11:48:30;;;;;;;16.10;12.57;;;9.10;99.90;;;;;;5002364;28;20241;-46
2020/12/15 11:50:58;;;;;;;13.57;12.20;;;9.10;99.90;;;;;;5005861;28;20234;-47
2020/12/15 11:53:26;;;;;;;13.87;12.10;;;9.10;99.90;;;;;;4995307;28;20369;-47
2020/12/15 11:55:54;;;;;;;12.93;11.53;;;9.10;99.90;;;;;;5001569;28;20245;-47
2020/12/15 11:58:38;;;;;;;14.23;11.63;;;9.10;99.90;;;;;;5004596;28;20268;-48
2020/12/15 12:01:07;;;;;;;13.63;12.13;;;9.10;99.90;;;;;;4993756;28;20237;-48
2020/12/15 12:03:34;;;;;;;15.00;11.97;;;9.00;99.90;;;;;;4997088;28;20709;-47
2020/12/15 12:06:02;;;;;;;14.10;11.87;;;9.00;99.90;;;;;;4995230;28;20315;-47
2020/12/15 12:08:29;;;;;;;14.30;12.80;;;9.00;99.90;;;;;;5008755;28;20326;-47
2020/12/15 12:10:58;;;;;;;17.30;13.37;;;9.00;99.90;;;;;;5020075;28;20705;-47
2020/12/15 12:13:25;;;;;;;15.13;12.77;;;9.00;99.90;;;;;;5024384;28;20310;-47
2020/12/15 12:15:53;;;;;;;13.37;11.93;;;9.00;99.90;;;;;;5010755;28;20769;-47
2020/12/15 12:18:21;;;;;;;16.57;14.17;;;9.00;99.90;;;;;;5010253;28;20272;-48
2020/12/15 12:20:48;;;;;;;16.37;14.10;;;9.00;99.90;;;;;;5003804;28;20249;-47
2020/12/15 12:23:15;;;;;;;16.00;14.07;;;9.10;99.90;;;;;;5004702;28;20323;-47
2020/12/15 12:25:43;;;;;;;15.70;14.10;;;9.10;99.90;;;;;;5014263;28;20724;-47
2020/12/15 12:28:10;;;;;;;14.30;12.77;;;9.10;99.90;;;;;;5000057;28;20240;-47
2020/12/15 12:30:37;;;;;;;15.10;12.87;;;9.20;99.90;;;;;;4993982;28;20241;-47
2020/12/15 12:33:06;;;;;;;14.00;12.50;;;9.20;99.90;;;;;;5004810;28;20242;-47
2020/12/15 12:35:33;;;;;;;14.70;12.23;;;9.10;99.90;;;;;;5007201;28;20696;-47
2020/12/15 12:38:01;;;;;;;14.67;12.93;;;9.10;99.90;;;;;;5014486;28;20355;-47
2020/12/15 12:40:29;;;;;;;15.13;12.53;;;9.00;99.90;;;;;;5016556;28;20272;-47
2020/12/15 12:42:59;;;;;;;14.43;12.93;;;9.00;99.90;;;;;;5025445;28;20252;-47
2020/12/15 12:45:26;;;;;;;15.17;13.57;;;9.00;99.90;;;;;;5010955;28;20232;-47
2020/12/15 12:47:53;;;;;;;14.13;12.63;;;9.00;99.90;;;;;;5006631;28;20287;-46
2020/12/15 12:50:21;;;;;;;14.40;12.67;;;8.90;99.90;;;;;;5016268;28;20676;-47
2020/12/15 12:52:49;;;;;;;14.20;12.60;;;8.80;99.90;;;;;;5029209;28;20608;-47
2020/12/15 12:55:16;;;;;;;14.10;12.60;;;8.80;99.90;;;;;;5014823;28;20244;-47
2020/12/15 12:57:44;;;;;;;15.30;13.80;;;8.80;99.90;;;;;;5018254;28;20270;-47
2020/12/15 13:00:11;;;;;;;16.60;14.43;;;8.80;99.90;;;;;;5015341;28;20666;-47
2020/12/15 13:02:40;;;;;;;16.43;12.80;;;8.90;99.90;;;;;;5026623;28;20248;-49
2020/12/15 13:05:08;;;;;;;16.20;14.43;;;8.90;99.90;;;;;;5023808;28;20243;-47
2020/12/15 13:07:36;;;;;;;16.67;14.00;;;8.90;99.90;;;;;;5025659;28;20240;-47